createdAt,value
2018-05-03T00:00:36.084Z,2.50
2018-05-03T00:01:36.271Z,2.40
2018-05-03T00:02:36.435Z,3.10
2018-05-03T00:03:36.597Z,4.30
2018-05-03T00:04:36.770Z,2.90
2018-05-03T00:05:36.932Z,2.50
2018-05-03T00:06:37.099Z,4.20
2018-05-03T00:07:37.273Z,4.70
2018-05-03T00:08:37.442Z,2.60
2018-05-03T00:09:37.605Z,5.20
2018-05-03T00:10:37.797Z,3.60
2018-05-03T00:11:37.945Z,3.40
2018-05-03T00:12:38.115Z,3.10
2018-05-03T00:13:38.285Z,5.90
2018-05-03T00:14:38.457Z,2.50
2018-05-03T00:15:38.618Z,2.50
2018-05-03T00:16:38.783Z,4.40
2018-05-03T00:17:38.945Z,3.20
2018-05-03T00:18:39.124Z,4.10
2018-05-03T00:19:39.294Z,3.70
2018-05-03T00:20:39.454Z,4.30
2018-05-03T00:21:39.621Z,3.40
2018-05-03T00:22:39.784Z,4.60
2018-05-03T00:23:39.951Z,3.00
2018-05-03T00:24:40.131Z,3.70
2018-05-03T00:25:40.270Z,4.00
2018-05-03T00:26:40.442Z,4.00
2018-05-03T00:27:40.598Z,3.00
2018-05-03T00:28:40.776Z,3.10
2018-05-03T00:29:40.940Z,4.30
2018-05-03T00:30:41.104Z,3.20
2018-05-03T00:31:41.274Z,6.50
2018-05-03T00:32:41.447Z,3.00
2018-05-03T00:33:41.605Z,4.60
2018-05-03T00:34:41.771Z,2.70
2018-05-03T00:35:41.932Z,3.40
2018-05-03T00:36:42.098Z,2.60
2018-05-03T00:37:42.276Z,5.10
2018-05-03T00:38:42.442Z,3.00
2018-05-03T00:39:42.611Z,7.20
2018-05-03T00:40:42.777Z,3.80
2018-05-03T00:41:42.938Z,3.80
2018-05-03T00:42:43.106Z,3.90
2018-05-03T00:43:43.274Z,3.80
2018-05-03T00:44:43.443Z,2.50
2018-05-03T00:45:43.611Z,3.20
2018-05-03T00:46:43.787Z,3.60
2018-05-03T00:47:43.945Z,3.00
2018-05-03T00:48:44.116Z,3.70
2018-05-03T00:49:44.279Z,3.30
2018-05-03T00:50:44.468Z,3.00
2018-05-03T00:51:44.631Z,4.80
2018-05-03T00:52:44.800Z,3.20
2018-05-03T00:53:44.973Z,3.10
2018-05-03T00:54:45.135Z,8.30
2018-05-03T00:55:45.300Z,7.10
2018-05-03T00:56:45.462Z,5.90
2018-05-03T00:57:45.633Z,6.00
2018-05-03T00:58:45.795Z,4.60
2018-05-03T00:59:45.968Z,3.80
2018-05-03T01:00:46.138Z,2.90
2018-05-03T01:01:46.296Z,3.50
2018-05-03T01:02:46.464Z,2.80
2018-05-03T01:03:46.634Z,3.60
2018-05-03T01:04:46.804Z,4.20
2018-05-03T01:05:46.966Z,3.10
2018-05-03T01:06:47.125Z,2.60
2018-05-03T01:07:47.371Z,3.90
2018-05-03T01:08:47.455Z,2.90
2018-05-03T01:09:47.621Z,3.10
2018-05-03T01:10:47.781Z,6.70
2018-05-03T01:11:47.951Z,5.30
2018-05-03T01:12:48.129Z,3.00
2018-05-03T01:13:48.306Z,2.90
2018-05-03T01:14:48.457Z,4.80
2018-05-03T01:15:48.631Z,3.30
2018-05-03T01:16:48.795Z,3.50
2018-05-03T01:17:48.963Z,5.20
2018-05-03T01:18:49.169Z,4.60
2018-05-03T01:19:49.303Z,4.50
2018-05-03T01:20:49.471Z,4.10
2018-05-03T01:21:49.630Z,5.00
2018-05-03T01:22:49.801Z,4.20
2018-05-03T01:23:49.967Z,4.50
2018-05-03T01:24:50.132Z,4.80
2018-05-03T01:25:50.288Z,3.90
2018-05-03T01:26:50.455Z,3.60
2018-05-03T01:27:50.624Z,5.10
2018-05-03T01:28:50.792Z,4.40
2018-05-03T01:29:50.958Z,6.20
2018-05-03T01:30:51.122Z,4.50
2018-05-03T01:31:51.288Z,4.50
2018-05-03T01:32:51.452Z,5.00
2018-05-03T01:33:51.618Z,3.20
2018-05-03T01:34:51.783Z,4.40
2018-05-03T01:35:51.955Z,5.70
2018-05-03T01:36:52.121Z,4.60
2018-05-03T01:37:52.293Z,2.80
2018-05-03T01:38:52.464Z,4.70
2018-05-03T01:39:52.631Z,5.30
2018-05-03T01:40:52.788Z,3.40
2018-05-03T01:41:52.953Z,5.60
2018-05-03T01:42:53.127Z,5.80
2018-05-03T01:43:53.294Z,3.60
2018-05-03T01:44:53.455Z,3.90
2018-05-03T01:45:53.628Z,3.30
2018-05-03T01:46:53.791Z,3.80
2018-05-03T01:47:53.945Z,3.00
2018-05-03T01:48:54.123Z,4.40
2018-05-03T01:49:54.294Z,5.90
2018-05-03T01:50:54.460Z,2.90
2018-05-03T01:51:54.633Z,3.90
2018-05-03T01:52:54.801Z,5.10
2018-05-03T01:53:54.963Z,3.50
2018-05-03T01:54:55.135Z,2.70
2018-05-03T01:55:55.294Z,3.30
2018-05-03T01:56:55.462Z,4.20
2018-05-03T01:57:55.623Z,2.80
2018-05-03T01:58:55.795Z,4.30
2018-05-03T01:59:55.960Z,3.30
2018-05-03T02:00:56.123Z,4.40
2018-05-03T02:01:56.290Z,2.90
2018-05-03T02:02:56.446Z,2.80
2018-05-03T02:03:56.611Z,2.80
2018-05-03T02:04:56.779Z,3.00
2018-05-03T02:05:56.949Z,3.70
2018-05-03T02:06:57.112Z,3.30
2018-05-03T02:07:57.285Z,2.90
2018-05-03T02:08:57.470Z,3.20
2018-05-03T02:09:57.636Z,2.70
2018-05-03T02:10:57.796Z,5.10
2018-05-03T02:11:57.962Z,4.40
2018-05-03T02:12:58.134Z,2.40
2018-05-03T02:13:58.301Z,3.10
2018-05-03T02:14:58.472Z,2.50
2018-05-03T02:15:58.636Z,3.80
2018-05-03T02:16:58.812Z,4.80
2018-05-03T02:17:58.976Z,2.00
2018-05-03T02:18:59.153Z,3.20
2018-05-03T02:19:59.312Z,2.80
2018-05-03T02:20:59.481Z,2.50
2018-05-03T02:21:59.646Z,2.50
2018-05-03T02:22:59.812Z,4.50
2018-05-03T02:23:59.976Z,3.40
2018-05-03T02:25:00.138Z,4.80
2018-05-03T02:26:00.302Z,3.00
2018-05-03T02:27:00.475Z,4.90
2018-05-03T02:28:00.645Z,3.00
2018-05-03T02:29:00.792Z,2.90
2018-05-03T02:30:00.968Z,2.70
2018-05-03T02:31:01.128Z,4.10
2018-05-03T02:32:01.313Z,4.10
2018-05-03T02:33:01.474Z,4.40
2018-05-03T02:34:01.647Z,3.30
2018-05-03T02:35:01.806Z,6.40
2018-05-03T02:36:01.972Z,4.90
2018-05-03T02:37:02.133Z,5.00
2018-05-03T02:38:02.292Z,3.00
2018-05-03T02:39:02.455Z,3.20
2018-05-03T02:40:02.622Z,5.70
2018-05-03T02:41:02.789Z,3.10
2018-05-03T02:42:02.953Z,3.50
2018-05-03T02:43:03.113Z,5.50
2018-05-03T02:44:03.281Z,4.40
2018-05-03T02:45:03.446Z,3.30
2018-05-03T02:46:03.617Z,4.50
2018-05-03T02:47:03.790Z,4.60
2018-05-03T02:48:03.969Z,3.40
2018-05-03T02:49:04.135Z,5.80
2018-05-03T02:50:04.313Z,3.90
2018-05-03T02:51:04.478Z,4.60
2018-05-03T02:52:04.638Z,3.60
2018-05-03T02:53:04.803Z,4.20
2018-05-03T02:54:04.963Z,2.90
2018-05-03T02:55:05.134Z,3.20
2018-05-03T02:56:05.298Z,4.90
2018-05-03T02:57:05.464Z,3.70
2018-05-03T02:58:05.631Z,3.40
2018-05-03T02:59:05.795Z,4.30
2018-05-03T03:00:05.950Z,3.30
2018-05-03T03:01:06.116Z,6.20
2018-05-03T03:02:06.273Z,6.70
2018-05-03T03:03:06.443Z,4.30
2018-05-03T03:04:06.612Z,3.20
2018-05-03T03:05:06.926Z,4.50
2018-05-03T03:06:07.435Z,4.20
2018-05-03T03:07:07.595Z,4.90
2018-05-03T03:08:07.715Z,5.80
2018-05-03T03:09:07.801Z,4.40
2018-05-03T03:10:07.937Z,5.40
2018-05-03T03:11:08.070Z,7.10
2018-05-03T03:12:08.249Z,3.90
2018-05-03T03:13:08.353Z,3.10
2018-05-03T03:14:08.516Z,3.30
2018-05-03T03:15:08.286Z,4.10
2018-05-03T03:16:08.450Z,4.70
2018-05-03T03:17:08.617Z,4.10
2018-05-03T03:18:08.788Z,3.90
2018-05-03T03:19:08.954Z,3.20
2018-05-03T03:20:09.124Z,4.50
2018-05-03T03:21:09.291Z,3.20
2018-05-03T03:22:09.530Z,4.00
2018-05-03T03:23:09.619Z,3.30
2018-05-03T03:24:09.781Z,3.10
2018-05-03T03:25:09.944Z,3.10
2018-05-03T03:26:10.102Z,4.30
2018-05-03T03:27:10.275Z,4.60
2018-05-03T03:28:10.445Z,3.30
2018-05-03T03:29:10.615Z,5.10
2018-05-03T03:30:10.777Z,4.90
2018-05-03T03:31:10.943Z,3.70
2018-05-03T03:32:11.095Z,4.60
2018-05-03T03:33:11.262Z,6.40
2018-05-03T03:34:11.434Z,5.10
2018-05-03T03:35:11.609Z,5.60
2018-05-03T03:36:11.773Z,3.20
2018-05-03T03:37:11.949Z,3.70
2018-05-03T03:38:12.118Z,4.60
2018-05-03T03:39:12.288Z,3.30
2018-05-03T03:40:12.452Z,3.20
2018-05-03T03:41:12.615Z,4.60
2018-05-03T03:42:12.783Z,4.60
2018-05-03T03:43:12.952Z,5.00
2018-05-03T03:44:13.121Z,3.80
2018-05-03T03:45:13.283Z,5.10
2018-05-03T03:46:13.457Z,3.20
2018-05-03T03:47:13.613Z,4.30
2018-05-03T03:48:13.781Z,4.40
2018-05-03T03:49:13.942Z,4.50
2018-05-03T03:50:14.104Z,3.80
2018-05-03T03:51:14.317Z,4.70
2018-05-03T03:52:14.455Z,4.00
2018-05-03T03:53:14.626Z,4.20
2018-05-03T03:54:14.807Z,3.90
2018-05-03T03:55:14.934Z,6.70
2018-05-03T03:56:15.099Z,4.00
2018-05-03T03:57:15.270Z,7.70
2018-05-03T03:58:15.430Z,5.10
2018-05-03T03:59:15.594Z,4.40
2018-05-03T04:00:15.767Z,4.10
2018-05-03T04:01:15.935Z,5.10
2018-05-03T04:02:16.105Z,5.20
2018-05-03T04:03:16.273Z,4.00
2018-05-03T04:04:17.846Z,4.80
2018-05-03T04:05:16.596Z,3.80
2018-05-03T04:06:16.761Z,3.70
2018-05-03T04:07:17.002Z,3.80
2018-05-03T04:08:17.106Z,5.30
2018-05-03T04:09:18.023Z,5.30
2018-05-03T04:10:17.344Z,3.70
2018-05-03T04:11:17.500Z,5.40
2018-05-03T04:12:17.665Z,5.70
2018-05-03T04:13:17.829Z,5.00
2018-05-03T04:14:18.004Z,4.70
2018-05-03T04:15:18.194Z,3.50
2018-05-03T04:16:18.331Z,4.90
2018-05-03T04:17:18.499Z,6.10
2018-05-03T04:18:18.664Z,5.00
2018-05-03T04:19:18.834Z,6.60
2018-05-03T04:20:20.022Z,5.20
2018-05-03T04:21:19.184Z,4.80
2018-05-03T04:22:19.412Z,4.40
2018-05-03T04:23:20.850Z,5.70
2018-05-03T04:24:19.662Z,7.60
2018-05-03T04:25:19.829Z,5.40
2018-05-03T04:26:20.018Z,3.50
2018-05-03T04:27:20.190Z,4.50
2018-05-03T04:28:21.328Z,4.30
2018-05-03T04:29:20.513Z,3.60
2018-05-03T04:30:20.675Z,3.40
2018-05-03T04:31:20.839Z,3.40
2018-05-03T04:32:21.007Z,3.70
2018-05-03T04:33:21.216Z,5.50
2018-05-03T04:34:21.451Z,5.60
2018-05-03T04:35:21.585Z,4.70
2018-05-03T04:36:21.843Z,5.20
2018-05-03T04:37:21.968Z,4.00
2018-05-03T04:38:22.131Z,3.90
2018-05-03T04:39:22.224Z,3.30
2018-05-03T04:40:22.387Z,3.90
2018-05-03T04:41:22.545Z,3.70
2018-05-03T04:42:22.721Z,6.10
2018-05-03T04:43:22.877Z,4.70
2018-05-03T04:44:23.046Z,4.10
2018-05-03T04:45:23.209Z,4.40
2018-05-03T04:46:23.391Z,5.70
2018-05-03T04:47:23.553Z,4.10
2018-05-03T04:48:23.720Z,4.30
2018-05-03T04:49:23.885Z,4.90
2018-05-03T04:50:24.052Z,3.40
2018-05-03T04:51:24.225Z,3.40
2018-05-03T04:52:24.391Z,5.00
2018-05-03T04:53:24.557Z,7.60
2018-05-03T04:54:24.959Z,4.30
2018-05-03T04:55:24.935Z,6.00
2018-05-03T04:56:25.102Z,3.90
2018-05-03T04:57:25.263Z,3.90
2018-05-03T04:58:25.429Z,6.10
2018-05-03T04:59:25.591Z,6.20
2018-05-03T05:00:25.753Z,5.30
2018-05-03T05:01:25.928Z,5.00
2018-05-03T05:02:26.090Z,5.00
2018-05-03T05:03:26.260Z,8.90
2018-05-03T05:04:26.455Z,4.00
2018-05-03T05:05:26.628Z,4.60
2018-05-03T05:06:26.795Z,6.00
2018-05-03T05:07:26.964Z,4.00
2018-05-03T05:08:27.130Z,4.60
2018-05-03T05:09:27.299Z,4.30
2018-05-03T05:10:27.509Z,3.60
2018-05-03T05:11:27.648Z,5.50
2018-05-03T05:12:27.812Z,4.30
2018-05-03T05:13:27.979Z,9.10
2018-05-03T05:14:28.142Z,6.00
2018-05-03T05:15:28.306Z,5.40
2018-05-03T05:16:28.472Z,6.80
2018-05-03T05:17:28.654Z,4.20
2018-05-03T05:18:28.821Z,4.40
2018-05-03T05:19:28.986Z,4.30
2018-05-03T05:20:29.150Z,4.10
2018-05-03T05:21:29.317Z,6.20
2018-05-03T05:22:29.493Z,5.00
2018-05-03T05:23:29.649Z,3.30
2018-05-03T05:24:29.810Z,5.60
2018-05-03T05:25:29.979Z,3.50
2018-05-03T05:26:30.141Z,4.60
2018-05-03T05:27:30.313Z,3.20
2018-05-03T05:28:30.493Z,3.50
2018-05-03T05:29:30.663Z,5.30
2018-05-03T05:30:30.824Z,4.30
2018-05-03T05:31:30.996Z,4.10
2018-05-03T05:32:31.169Z,7.00
2018-05-03T05:33:31.327Z,3.90
2018-05-03T05:34:31.497Z,4.80
2018-05-03T05:35:31.662Z,4.20
2018-05-03T05:36:31.832Z,3.40
2018-05-03T05:37:31.994Z,5.20
2018-05-03T05:38:32.174Z,3.80
2018-05-03T05:39:32.342Z,3.80
2018-05-03T05:40:32.499Z,5.90
2018-05-03T05:41:32.659Z,4.80
2018-05-03T05:42:32.829Z,5.40
2018-05-03T05:43:32.992Z,7.40
2018-05-03T05:44:33.168Z,4.30
2018-05-03T05:45:33.334Z,3.70
2018-05-03T05:46:33.502Z,4.50
2018-05-03T05:47:33.667Z,6.60
2018-05-03T05:48:33.843Z,5.60
2018-05-03T05:49:34.013Z,4.70
2018-05-03T05:50:34.179Z,4.00
2018-05-03T05:51:34.339Z,4.00
2018-05-03T05:52:34.513Z,4.20
2018-05-03T05:53:34.694Z,4.40
2018-05-03T05:54:34.866Z,4.60
2018-05-03T05:55:35.075Z,4.50
2018-05-03T05:56:35.286Z,4.30
2018-05-03T05:57:35.371Z,3.60
2018-05-03T05:58:35.540Z,4.10
2018-05-03T05:59:35.707Z,5.60
2018-05-03T06:00:35.895Z,5.00
2018-05-03T06:01:36.061Z,6.00
2018-05-03T06:02:36.258Z,5.80
2018-05-03T06:03:36.420Z,4.10
2018-05-03T06:04:36.593Z,4.40
2018-05-03T06:05:36.759Z,6.00
2018-05-03T06:06:36.931Z,3.60
2018-05-03T06:07:37.100Z,7.40
2018-05-03T06:08:37.276Z,6.40
2018-05-03T06:09:37.445Z,3.90
2018-05-03T06:10:37.611Z,4.00
2018-05-03T06:11:37.789Z,3.50
2018-05-03T06:12:37.947Z,5.60
2018-05-03T06:13:38.141Z,6.30
2018-05-03T06:14:38.303Z,3.90
2018-05-03T06:15:38.471Z,4.70
2018-05-03T06:16:38.635Z,4.50
2018-05-03T06:17:38.801Z,4.10
2018-05-03T06:18:38.990Z,5.70
2018-05-03T06:19:39.156Z,5.90
2018-05-03T06:20:39.327Z,8.20
2018-05-03T06:21:39.490Z,6.40
2018-05-03T06:22:39.655Z,9.70
2018-05-03T06:23:39.826Z,6.30
2018-05-03T06:24:39.990Z,8.70
2018-05-03T06:25:40.161Z,7.00
2018-05-03T06:26:40.325Z,5.90
2018-05-03T06:27:40.526Z,10.70
2018-05-03T06:28:40.655Z,5.30
2018-05-03T06:29:40.823Z,4.10
2018-05-03T06:30:40.990Z,4.80
2018-05-03T06:31:41.156Z,7.40
2018-05-03T06:32:41.332Z,4.70
2018-05-03T06:33:41.505Z,5.30
2018-05-03T06:34:41.676Z,11.30
2018-05-03T06:35:41.841Z,9.60
2018-05-03T06:36:42.007Z,3.90
2018-05-03T06:37:42.174Z,5.20
2018-05-03T06:38:42.331Z,6.80
2018-05-03T06:39:42.520Z,4.40
2018-05-03T06:40:42.683Z,5.50
2018-05-03T06:41:42.845Z,7.40
2018-05-03T06:42:43.013Z,5.30
2018-05-03T06:43:43.185Z,6.30
2018-05-03T06:44:43.352Z,5.90
2018-05-03T06:45:43.521Z,4.70
2018-05-03T06:46:43.702Z,4.50
2018-05-03T06:47:43.872Z,5.20
2018-05-03T06:48:44.039Z,5.60
2018-05-03T06:49:44.206Z,6.10
2018-05-03T06:50:44.381Z,6.20
2018-05-03T06:51:44.547Z,4.70
2018-05-03T06:52:44.713Z,5.90
2018-05-03T06:53:44.879Z,6.80
2018-05-03T06:54:45.055Z,5.50
2018-05-03T06:55:45.218Z,7.20
2018-05-03T06:56:45.386Z,7.20
2018-05-03T06:57:45.555Z,4.70
2018-05-03T06:58:45.728Z,10.30
2018-05-03T06:59:45.897Z,5.30
2018-05-03T07:00:46.066Z,5.50
2018-05-03T07:01:46.234Z,5.00
2018-05-03T07:02:46.404Z,4.20
2018-05-03T07:03:46.570Z,5.10
2018-05-03T07:04:46.740Z,4.70
2018-05-03T07:05:46.908Z,5.90
2018-05-03T07:06:47.075Z,5.30
2018-05-03T07:07:47.282Z,6.40
2018-05-03T07:08:47.402Z,5.80
2018-05-03T07:09:47.574Z,8.70
2018-05-03T07:10:47.749Z,5.60
2018-05-03T07:11:47.919Z,5.50
2018-05-03T07:12:48.099Z,5.40
2018-05-03T07:13:48.273Z,7.80
2018-05-03T07:14:48.442Z,6.60
2018-05-03T07:15:48.613Z,5.70
2018-05-03T07:16:48.795Z,6.90
2018-05-03T07:17:48.960Z,4.30
2018-05-03T07:18:49.131Z,4.40
2018-05-03T07:19:49.298Z,4.30
2018-05-03T07:20:49.468Z,4.50
2018-05-03T07:21:49.644Z,7.10
2018-05-03T07:22:49.814Z,5.50
2018-05-03T07:23:49.979Z,5.60
2018-05-03T07:24:50.140Z,6.40
2018-05-03T07:25:50.313Z,4.50
2018-05-03T07:26:50.493Z,5.10
2018-05-03T07:27:50.654Z,6.20
2018-05-03T07:28:50.828Z,6.00
2018-05-03T07:29:50.999Z,5.50
2018-05-03T07:30:51.168Z,7.40
2018-05-03T07:31:51.335Z,5.50
2018-05-03T07:32:51.502Z,5.40
2018-05-03T07:33:51.678Z,6.20
2018-05-03T07:34:51.914Z,7.40
2018-05-03T07:35:52.013Z,9.80
2018-05-03T07:36:52.192Z,9.10
2018-05-03T07:37:52.357Z,7.10
2018-05-03T07:38:52.526Z,6.50
2018-05-03T07:39:52.696Z,6.40
2018-05-03T07:40:52.961Z,7.00
2018-05-03T07:41:53.077Z,6.70
2018-05-03T07:42:53.219Z,7.60
2018-05-03T07:43:53.391Z,5.90
2018-05-03T07:44:53.564Z,7.20
2018-05-03T07:45:53.815Z,10.10
2018-05-03T07:46:53.915Z,10.90
2018-05-03T07:47:54.084Z,10.60
2018-05-03T07:48:54.247Z,11.10
2018-05-03T07:49:54.418Z,10.80
2018-05-03T07:50:54.582Z,9.70
2018-05-03T07:51:54.756Z,9.40
2018-05-03T07:52:54.931Z,9.60
2018-05-03T07:53:55.099Z,10.60
2018-05-03T07:54:55.261Z,12.80
2018-05-03T07:55:55.437Z,10.80
2018-05-03T07:56:55.604Z,10.00
2018-05-03T07:57:55.772Z,8.50
2018-05-03T07:58:55.963Z,11.40
2018-05-03T07:59:56.129Z,11.30
2018-05-03T08:00:56.301Z,11.50
2018-05-03T08:01:56.487Z,9.70
2018-05-03T08:02:56.653Z,9.90
2018-05-03T08:03:56.831Z,11.10
2018-05-03T08:04:56.998Z,10.60
2018-05-03T08:05:57.170Z,9.60
2018-05-03T08:06:57.337Z,11.60
2018-05-03T08:07:57.505Z,10.60
2018-05-03T08:08:57.704Z,11.60
2018-05-03T08:09:57.942Z,13.00
2018-05-03T08:10:58.093Z,12.60
2018-05-03T08:11:58.214Z,11.80
2018-05-03T08:12:59.402Z,9.40
2018-05-03T08:13:58.528Z,10.30
2018-05-03T08:14:58.693Z,10.00
2018-05-03T08:15:58.869Z,11.00
2018-05-03T08:16:59.095Z,10.10
2018-05-03T08:17:59.215Z,11.10
2018-05-03T08:18:59.381Z,11.80
2018-05-03T08:19:59.555Z,10.10
2018-05-03T08:20:59.734Z,10.60
2018-05-03T08:21:59.898Z,11.20
2018-05-03T08:23:00.067Z,10.40
2018-05-03T08:24:00.244Z,10.30
2018-05-03T08:25:00.412Z,10.70
2018-05-03T08:26:00.584Z,10.40
2018-05-03T08:27:00.755Z,13.90
2018-05-03T08:28:00.923Z,10.70
2018-05-03T08:29:01.099Z,9.80
2018-05-03T08:30:01.266Z,8.70
2018-05-03T08:31:01.439Z,10.80
2018-05-03T08:32:01.617Z,8.70
2018-05-03T08:33:01.786Z,8.90
2018-05-03T08:34:01.961Z,8.60
2018-05-03T08:35:02.136Z,7.20
2018-05-03T08:36:02.314Z,7.80
2018-05-03T08:37:02.486Z,8.00
2018-05-03T08:38:02.657Z,7.60
2018-05-03T08:39:02.831Z,8.30
2018-05-03T08:40:03.001Z,7.30
2018-05-03T08:41:03.173Z,8.30
2018-05-03T08:42:03.345Z,11.20
2018-05-03T08:43:03.516Z,6.80
2018-05-03T08:44:03.688Z,10.10
2018-05-03T08:45:03.862Z,6.70
2018-05-03T08:46:04.043Z,7.70
2018-05-03T08:47:04.206Z,7.40
2018-05-03T08:48:04.389Z,6.30
2018-05-03T08:49:04.564Z,6.20
2018-05-03T08:50:04.736Z,6.30
2018-05-03T08:51:04.911Z,5.90
2018-05-03T08:52:05.083Z,6.80
2018-05-03T08:53:05.252Z,7.30
2018-05-03T08:54:05.432Z,5.40
2018-05-03T08:55:05.606Z,8.20
2018-05-03T08:56:05.783Z,6.10
2018-05-03T08:57:05.960Z,5.90
2018-05-03T08:58:06.135Z,6.80
2018-05-03T08:59:06.311Z,6.00
2018-05-03T09:00:06.490Z,5.90
2018-05-03T09:01:06.664Z,7.30
2018-05-03T09:02:06.839Z,7.20
2018-05-03T09:03:07.012Z,6.10
2018-05-03T09:04:07.189Z,5.90
2018-05-03T09:05:07.360Z,5.70
2018-05-03T09:06:07.538Z,5.60
2018-05-03T09:07:07.733Z,8.20
2018-05-03T09:08:07.912Z,6.10
2018-05-03T09:09:08.079Z,5.90
2018-05-03T09:10:08.255Z,5.60
2018-05-03T09:11:08.433Z,5.00
2018-05-03T09:12:08.620Z,6.40
2018-05-03T09:13:08.793Z,5.40
2018-05-03T09:14:08.970Z,5.90
2018-05-03T09:15:09.150Z,5.00
2018-05-03T09:16:09.330Z,6.20
2018-05-03T09:17:09.505Z,7.00
2018-05-03T09:18:09.684Z,5.90
2018-05-03T09:19:09.864Z,8.00
2018-05-03T09:20:10.041Z,6.50
2018-05-03T09:21:10.222Z,5.30
2018-05-03T09:22:10.400Z,6.00
2018-05-03T09:23:10.577Z,5.10
2018-05-03T09:24:10.847Z,6.60
2018-05-03T09:25:10.955Z,5.10
2018-05-03T09:26:11.138Z,5.20
2018-05-03T09:27:11.314Z,4.50
2018-05-03T09:28:11.485Z,5.80
2018-05-03T09:29:11.665Z,4.50
2018-05-03T09:30:11.838Z,4.20
2018-05-03T09:31:12.016Z,4.80
2018-05-03T09:32:12.196Z,4.10
2018-05-03T09:33:12.377Z,5.60
2018-05-03T09:34:12.548Z,4.40
2018-05-03T09:35:12.741Z,4.20
2018-05-03T09:36:12.917Z,5.00
2018-05-03T09:37:13.096Z,5.90
2018-05-03T09:38:13.273Z,6.40
2018-05-03T09:39:13.515Z,4.80
2018-05-03T09:40:13.655Z,5.10
2018-05-03T09:41:13.810Z,4.80
2018-05-03T09:42:13.977Z,5.00
2018-05-03T09:43:14.160Z,4.40
2018-05-03T09:44:14.343Z,6.00
2018-05-03T09:45:14.537Z,4.30
2018-05-03T09:46:14.712Z,6.00
2018-05-03T09:47:14.896Z,4.90
2018-05-03T09:48:15.070Z,4.50
2018-05-03T09:49:15.248Z,5.50
2018-05-03T09:50:15.428Z,4.60
2018-05-03T09:51:15.594Z,4.50
2018-05-03T09:52:15.774Z,4.10
2018-05-03T09:53:15.945Z,5.70
2018-05-03T09:54:16.302Z,5.90
2018-05-03T09:55:16.247Z,5.30
2018-05-03T09:56:16.426Z,4.80
2018-05-03T09:57:16.607Z,5.50
2018-05-03T09:58:16.792Z,5.20
2018-05-03T09:59:17.021Z,5.60
2018-05-03T10:00:17.129Z,6.90
2018-05-03T10:01:17.357Z,5.30
2018-05-03T10:02:17.472Z,6.80
2018-05-03T10:03:17.750Z,6.60
2018-05-03T10:04:17.821Z,5.10
2018-05-03T10:05:17.946Z,7.00
2018-05-03T10:06:18.127Z,5.30
2018-05-03T10:07:18.307Z,6.20
2018-05-03T10:08:18.481Z,6.30
2018-05-03T10:09:18.663Z,7.60
2018-05-03T10:10:18.852Z,5.50
2018-05-03T10:11:19.016Z,9.60
2018-05-03T10:12:19.206Z,5.40
2018-05-03T10:13:19.495Z,5.70
2018-05-03T10:14:19.539Z,5.00
2018-05-03T10:15:19.714Z,5.20
2018-05-03T10:16:19.906Z,4.70
2018-05-03T10:17:20.269Z,7.30
2018-05-03T10:18:20.303Z,4.80
2018-05-03T10:19:20.476Z,4.60
2018-05-03T10:20:20.659Z,5.20
2018-05-03T10:21:20.824Z,6.40
2018-05-03T10:22:20.999Z,4.90
2018-05-03T10:23:21.189Z,5.40
2018-05-03T10:24:21.460Z,5.20
2018-05-03T10:25:21.636Z,11.10
2018-05-03T10:26:21.841Z,9.50
2018-05-03T10:27:21.916Z,5.70
2018-05-03T10:28:22.106Z,5.90
2018-05-03T10:29:22.276Z,4.90
2018-05-03T10:30:22.454Z,5.10
2018-05-03T10:31:22.633Z,5.20
2018-05-03T10:32:22.807Z,4.90
2018-05-03T10:33:22.982Z,5.00
2018-05-03T10:34:23.155Z,5.50
2018-05-03T10:37:09.577Z,6.10
2018-05-03T10:38:09.623Z,5.30
2018-05-03T10:39:10.856Z,5.40
2018-05-03T10:40:09.948Z,5.20
2018-05-03T10:41:10.826Z,6.50
2018-05-03T10:42:10.801Z,5.40
2018-05-03T10:43:10.569Z,5.10
2018-05-03T10:44:11.425Z,6.50
2018-05-03T10:45:12.468Z,5.60
2018-05-03T10:46:11.775Z,5.20
2018-05-03T10:47:11.248Z,5.60
2018-05-03T10:48:11.670Z,7.40
2018-05-03T10:49:13.814Z,6.90
2018-05-03T10:50:11.921Z,5.10
2018-05-03T10:51:11.986Z,5.60
2018-05-03T10:52:12.527Z,5.30
2018-05-03T10:53:13.240Z,5.30
2018-05-03T10:54:12.952Z,5.60
2018-05-03T10:55:13.110Z,7.40
2018-05-03T10:56:15.205Z,5.70
2018-05-03T10:58:46.878Z,5.00
2018-05-03T10:59:46.069Z,5.10
2018-05-03T11:00:46.046Z,5.10
2018-05-03T11:01:46.736Z,4.90
2018-05-03T11:02:46.185Z,5.10
2018-05-03T11:03:46.487Z,7.90
2018-05-03T11:04:47.183Z,5.00
2018-05-03T11:05:48.373Z,5.40
2018-05-03T11:06:47.675Z,5.20
2018-05-03T11:07:47.518Z,5.10
2018-05-03T11:08:47.146Z,5.10
2018-05-03T11:09:48.007Z,5.30
2018-05-03T11:10:48.374Z,5.00
2018-05-03T11:11:47.315Z,5.00
2018-05-03T11:12:49.262Z,5.10
2018-05-03T11:13:48.193Z,4.90
2018-05-03T11:14:48.763Z,4.30
2018-05-03T11:15:49.084Z,4.50
2018-05-03T11:16:49.158Z,4.30
2018-05-03T11:17:50.513Z,4.60
2018-05-03T11:18:49.030Z,4.10
2018-05-03T11:19:50.302Z,4.40
2018-05-03T11:20:50.172Z,4.20
2018-05-03T11:21:49.709Z,3.60
2018-05-03T11:22:50.379Z,4.90
2018-05-03T11:23:49.679Z,3.90
2018-05-03T11:24:50.735Z,4.90
2018-05-03T11:25:50.267Z,3.70
2018-05-03T11:26:50.785Z,3.50
2018-05-03T11:27:50.247Z,4.30
2018-05-03T11:28:50.525Z,4.70
2018-05-03T11:29:51.584Z,3.50
2018-05-03T11:30:51.475Z,3.60
2018-05-03T11:31:51.241Z,5.90
2018-05-03T11:32:51.272Z,3.60
2018-05-03T11:33:51.574Z,3.30
2018-05-03T11:34:52.125Z,5.20
2018-05-03T11:35:52.407Z,3.10
2018-05-03T11:36:52.436Z,4.50
2018-05-03T11:37:52.960Z,3.60
2018-05-03T11:38:52.782Z,3.30
2018-05-03T11:39:52.610Z,5.80
2018-05-03T11:40:53.299Z,3.20
2018-05-03T11:41:53.690Z,3.90
2018-05-03T11:42:53.815Z,3.80
2018-05-03T11:43:53.318Z,3.60
2018-05-03T11:44:54.428Z,3.70
2018-05-03T11:45:53.927Z,3.80
2018-05-03T11:46:53.938Z,3.20
2018-05-03T11:47:54.792Z,3.20
2018-05-03T11:48:54.627Z,2.90
2018-05-03T11:49:54.381Z,3.10
2018-05-03T11:50:54.640Z,5.00
2018-05-03T11:51:57.685Z,2.70
2018-05-03T11:52:55.078Z,3.30
2018-05-03T11:53:55.077Z,4.50
2018-05-03T11:54:55.267Z,3.00
2018-05-03T11:55:55.440Z,4.90
2018-05-03T11:56:55.632Z,3.60
2018-05-03T11:57:55.809Z,3.80
2018-05-03T11:58:56.004Z,3.90
2018-05-03T11:59:56.209Z,4.20
2018-05-03T12:00:56.431Z,5.60
2018-05-03T12:01:56.613Z,4.30
2018-05-03T12:02:56.789Z,3.60
2018-05-03T12:03:56.970Z,5.60
2018-05-03T12:04:57.152Z,4.20
2018-05-03T12:05:57.410Z,4.20
2018-05-03T12:06:57.529Z,4.80
2018-05-03T12:07:57.723Z,3.80
2018-05-03T12:08:57.962Z,4.30
2018-05-03T12:09:58.022Z,4.60
2018-05-03T12:10:58.199Z,3.90
2018-05-03T12:11:58.377Z,5.20
2018-05-03T12:12:58.561Z,3.40
2018-05-03T12:13:58.752Z,3.10
2018-05-03T12:14:58.940Z,3.30
2018-05-03T12:15:59.116Z,3.10
2018-05-03T12:16:59.300Z,3.60
2018-05-03T12:17:59.476Z,3.50
2018-05-03T12:18:59.663Z,5.20
2018-05-03T12:19:59.841Z,3.50
2018-05-03T12:21:00.138Z,3.10
2018-05-03T12:22:00.166Z,3.10
2018-05-03T12:23:00.340Z,3.20
2018-05-03T12:24:00.532Z,3.00
2018-05-03T12:25:00.705Z,5.40
2018-05-03T12:26:00.892Z,3.40
2018-05-03T12:27:01.097Z,3.20
2018-05-03T12:28:01.277Z,3.40
2018-05-03T12:29:01.469Z,3.10
2018-05-03T12:30:01.656Z,3.10
2018-05-03T12:31:01.834Z,4.60
2018-05-03T12:32:02.024Z,3.00
2018-05-03T12:33:02.214Z,3.60
2018-05-03T12:34:02.395Z,3.40
2018-05-03T12:35:02.590Z,3.40
2018-05-03T12:36:02.772Z,3.20
2018-05-03T12:37:03.007Z,4.50
2018-05-03T12:38:03.130Z,3.50
2018-05-03T12:39:03.311Z,4.90
2018-05-03T12:40:03.608Z,3.90
2018-05-03T12:41:03.667Z,4.10
2018-05-03T12:42:03.845Z,3.60
2018-05-03T12:43:04.035Z,3.40
2018-05-03T12:44:04.212Z,5.00
2018-05-03T12:45:04.406Z,3.30
2018-05-03T12:46:04.596Z,3.10
2018-05-03T12:47:04.775Z,4.30
2018-05-03T12:48:04.957Z,3.80
2018-05-03T12:49:05.141Z,3.10
2018-05-03T12:50:05.319Z,5.30
2018-05-03T12:51:05.488Z,4.10
2018-05-03T12:52:05.679Z,3.00
2018-05-03T12:53:05.872Z,3.20
2018-05-03T12:54:06.028Z,4.00
2018-05-03T12:55:06.207Z,3.50
2018-05-03T12:56:06.385Z,3.10
2018-05-03T12:57:06.567Z,3.70
2018-05-03T12:58:06.755Z,3.20
2018-05-03T12:59:06.933Z,4.70
2018-05-03T13:00:07.114Z,3.80
2018-05-03T13:01:07.295Z,3.80
2018-05-03T13:02:07.484Z,4.30
2018-05-03T13:03:07.659Z,4.30
2018-05-03T13:04:07.844Z,4.30
2018-05-03T13:06:22.257Z,4.40
2018-05-03T13:07:21.327Z,3.90
2018-05-03T13:08:21.504Z,4.20
2018-05-03T13:09:21.685Z,5.50
2018-05-03T13:10:21.862Z,5.30
2018-05-03T13:11:22.045Z,6.60
2018-05-03T13:12:22.227Z,3.60
2018-05-03T13:13:22.416Z,4.20
2018-05-03T13:14:22.615Z,5.10
2018-05-03T13:15:22.781Z,4.80
2018-05-03T13:16:22.953Z,3.80
2018-05-03T13:17:23.235Z,4.10
2018-05-03T13:18:23.306Z,4.40
2018-05-03T13:19:23.494Z,4.60
2018-05-03T13:20:23.663Z,4.00
2018-05-03T13:21:23.850Z,4.00
2018-05-03T13:22:24.024Z,6.60
2018-05-03T13:23:24.199Z,4.40
2018-05-03T13:24:24.374Z,4.20